createdAt,value
2019-05-29T00:02:16.963Z,23.30
2019-05-29T00:04:50.807Z,23.40
2019-05-29T00:07:23.421Z,23.40
2019-05-29T00:09:57.804Z,23.50
2019-05-29T00:12:31.812Z,23.50
2019-05-29T00:15:06.215Z,23.50
2019-05-29T00:17:41.285Z,23.50
2019-05-29T00:20:15.068Z,23.50
2019-05-29T00:22:49.113Z,23.50
2019-05-29T00:25:23.496Z,23.60
2019-05-29T00:27:57.917Z,23.60
2019-05-29T00:30:32.238Z,23.70
2019-05-29T00:33:07.882Z,23.80
2019-05-29T00:35:42.468Z,23.80
2019-05-29T00:38:16.939Z,23.90
2019-05-29T00:40:51.259Z,23.90
2019-05-29T00:43:25.470Z,24.10
2019-05-29T00:45:59.445Z,24.10
2019-05-29T00:48:33.817Z,24.10
2019-05-29T00:51:08.925Z,23.90
2019-05-29T00:53:43.507Z,24.00
2019-05-29T00:56:18.763Z,24.10
2019-05-29T00:58:53.241Z,24.10
2019-05-29T01:01:27.772Z,23.90
2019-05-29T01:04:04.354Z,23.90
2019-05-29T01:06:38.536Z,23.90
2019-05-29T01:09:13.034Z,24.10
2019-05-29T01:11:47.053Z,24.30
2019-05-29T01:14:21.495Z,24.40
2019-05-29T01:16:56.032Z,24.70
2019-05-29T01:19:31.830Z,24.80
2019-05-29T01:22:06.323Z,24.80
2019-05-29T01:24:40.381Z,24.70
2019-05-29T01:27:15.072Z,24.80
2019-05-29T01:29:49.168Z,24.80
2019-05-29T01:32:23.753Z,24.80
2019-05-29T01:34:58.028Z,24.80
2019-05-29T01:37:32.241Z,24.60
2019-05-29T01:40:19.207Z,24.50
2019-05-29T01:42:41.962Z,24.60
2019-05-29T01:45:17.386Z,24.60
2019-05-29T01:47:51.562Z,24.80
2019-05-29T01:50:26.236Z,24.70
2019-05-29T01:53:00.546Z,24.80
2019-05-29T01:55:34.732Z,24.70
2019-05-29T01:58:09.352Z,24.80
2019-05-29T02:00:43.269Z,25.10
2019-05-29T02:03:16.205Z,25.30
2019-05-29T02:05:50.519Z,25.40
2019-05-29T02:08:24.493Z,25.30
2019-05-29T02:10:58.552Z,25.30
2019-05-29T02:13:32.695Z,25.30
2019-05-29T02:16:07.026Z,25.50
2019-05-29T02:18:40.714Z,25.30
2019-05-29T02:21:13.669Z,25.30
2019-05-29T02:23:48.092Z,25.50
2019-05-29T02:26:22.424Z,25.50
2019-05-29T02:28:57.052Z,25.50
2019-05-29T02:31:31.416Z,25.40
2019-05-29T02:34:07.515Z,25.50
2019-05-29T02:36:41.503Z,25.50
2019-05-29T02:39:15.691Z,25.70
2019-05-29T02:41:49.509Z,25.60
2019-05-29T02:44:23.520Z,25.60
2019-05-29T02:46:57.797Z,25.70
2019-05-29T02:49:31.738Z,25.70
2019-05-29T02:52:04.561Z,25.70
2019-05-29T02:54:38.827Z,25.60
2019-05-29T02:57:13.402Z,25.50
2019-05-29T02:59:47.926Z,25.50
2019-05-29T03:02:23.408Z,25.40
2019-05-29T03:04:58.002Z,25.60
2019-05-29T03:07:33.102Z,25.60
2019-05-29T03:10:11.043Z,25.70
2019-05-29T03:12:45.787Z,25.80
2019-05-29T03:15:20.391Z,25.80
2019-05-29T03:17:54.367Z,25.80
2019-05-29T03:20:30.235Z,25.70
2019-05-29T03:23:03.738Z,25.80
2019-05-29T03:25:38.249Z,25.80
2019-05-29T03:28:12.278Z,25.80
2019-05-29T03:30:46.664Z,25.60
2019-05-29T03:33:20.718Z,25.50
2019-05-29T03:35:54.586Z,25.50
2019-05-29T03:38:29.840Z,25.40
2019-05-29T03:41:03.707Z,25.40
2019-05-29T03:43:36.275Z,25.40
2019-05-29T03:46:29.004Z,25.30
2019-05-29T03:48:45.634Z,25.30
2019-05-29T03:51:19.783Z,25.40
2019-05-29T03:53:54.090Z,25.60
2019-05-29T03:56:30.424Z,25.70
2019-05-29T03:59:04.834Z,25.80
2019-05-29T04:01:38.867Z,25.70
2019-05-29T04:04:13.311Z,25.80
2019-05-29T04:06:47.493Z,25.90
2019-05-29T04:09:23.167Z,26.00
2019-05-29T04:11:57.154Z,26.10
2019-05-29T04:14:33.348Z,26.30
2019-05-29T04:17:08.141Z,26.40
2019-05-29T04:19:43.377Z,26.40
2019-05-29T04:22:19.333Z,26.40
2019-05-29T04:24:55.100Z,26.40
2019-05-29T04:27:31.855Z,26.50
2019-05-29T04:30:08.231Z,26.40
2019-05-29T04:32:42.663Z,26.30
2019-05-29T04:35:17.233Z,26.40
2019-05-29T04:37:51.065Z,26.30
2019-05-29T04:40:30.200Z,26.20
2019-05-29T04:43:04.098Z,26.20
2019-05-29T04:45:39.989Z,26.00
2019-05-29T04:48:15.199Z,26.00
2019-05-29T04:50:49.475Z,25.90
2019-05-29T04:53:23.485Z,25.80
2019-05-29T04:55:57.670Z,25.70
2019-05-29T04:58:32.783Z,25.50
2019-05-29T05:01:07.049Z,25.40
2019-05-29T05:03:41.503Z,25.40
2019-05-29T05:06:15.626Z,25.30
2019-05-29T05:08:49.576Z,25.40
2019-05-29T05:11:23.896Z,25.40
2019-05-29T05:14:01.493Z,25.20
2019-05-29T05:16:34.096Z,25.20
2019-05-29T05:19:08.080Z,25.20
2019-05-29T05:21:43.688Z,25.20
2019-05-29T05:24:17.616Z,25.00
2019-05-29T05:26:52.300Z,25.00
2019-05-29T05:29:28.795Z,25.00
2019-05-29T05:32:02.910Z,25.10
2019-05-29T05:34:38.773Z,24.90
2019-05-29T05:37:14.360Z,24.80
2019-05-29T05:39:48.821Z,24.80
2019-05-29T05:42:23.007Z,24.90
2019-05-29T05:44:57.212Z,25.00
2019-05-29T05:47:45.100Z,25.00
2019-05-29T05:50:09.186Z,25.10
2019-05-29T05:52:43.765Z,25.20
2019-05-29T05:55:18.378Z,25.20
2019-05-29T05:57:52.780Z,25.40
2019-05-29T06:00:35.809Z,25.50
2019-05-29T06:03:09.889Z,25.50
2019-05-29T06:05:43.951Z,25.40
2019-05-29T06:08:18.293Z,25.50
2019-05-29T06:10:52.488Z,25.40
2019-05-29T06:13:26.575Z,25.50
2019-05-29T06:16:00.525Z,25.40
2019-05-29T06:18:34.783Z,25.50
2019-05-29T06:21:08.944Z,25.60
2019-05-29T06:23:43.447Z,25.70
2019-05-29T06:26:18.037Z,25.70
2019-05-29T06:28:52.594Z,25.70
2019-05-29T06:31:27.288Z,25.90
2019-05-29T06:34:01.644Z,25.90
2019-05-29T06:36:35.680Z,25.90
2019-05-29T06:39:10.881Z,25.90
2019-05-29T06:41:45.386Z,25.90
2019-05-29T06:44:19.805Z,25.90
2019-05-29T06:46:54.254Z,25.90
2019-05-29T06:49:28.972Z,25.80
2019-05-29T06:52:03.310Z,25.90
2019-05-29T06:54:37.815Z,25.90
2019-05-29T06:57:12.293Z,25.90
2019-05-29T06:59:47.066Z,25.80
2019-05-29T07:02:21.614Z,25.70
2019-05-29T07:04:55.575Z,25.70
2019-05-29T07:07:29.711Z,25.70
2019-05-29T07:10:04.906Z,25.80
2019-05-29T07:12:38.731Z,25.80
2019-05-29T07:15:13.866Z,25.90
2019-05-29T07:17:48.076Z,25.90
2019-05-29T07:20:22.156Z,26.00
2019-05-29T07:22:56.058Z,26.10
2019-05-29T07:25:30.577Z,26.00
2019-05-29T07:28:04.661Z,25.90
2019-05-29T07:30:39.142Z,25.80
2019-05-29T07:33:13.706Z,25.70
2019-05-29T07:35:48.105Z,25.70
2019-05-29T07:38:22.105Z,25.50
2019-05-29T07:40:56.862Z,25.30
2019-05-29T07:43:31.201Z,25.10
2019-05-29T07:46:05.283Z,25.00
2019-05-29T07:48:40.425Z,24.90
2019-05-29T07:51:14.873Z,24.90
2019-05-29T07:53:49.200Z,24.90
2019-05-29T07:56:24.414Z,24.90
2019-05-29T07:59:02.840Z,24.80
2019-05-29T08:01:35.407Z,24.80
2019-05-29T08:04:09.746Z,24.90
2019-05-29T08:06:50.525Z,24.80
2019-05-29T08:09:18.975Z,24.80
2019-05-29T08:11:52.979Z,24.80
2019-05-29T08:14:27.193Z,24.80
2019-05-29T08:17:01.077Z,24.80
2019-05-29T08:19:35.996Z,24.80
2019-05-29T08:22:10.587Z,24.90
2019-05-29T08:24:46.315Z,25.00
2019-05-29T08:27:20.547Z,25.10
2019-05-29T08:29:54.961Z,25.30
2019-05-29T08:32:29.333Z,25.30
2019-05-29T08:35:03.720Z,25.20
2019-05-29T08:37:37.670Z,25.30
2019-05-29T08:40:12.065Z,25.20
2019-05-29T08:42:47.299Z,25.20
2019-05-29T08:45:21.985Z,25.20
2019-05-29T08:47:56.306Z,25.20
2019-05-29T08:50:30.090Z,25.00
2019-05-29T08:53:04.678Z,25.00
2019-05-29T08:55:38.610Z,25.10
2019-05-29T08:58:12.921Z,25.10
2019-05-29T09:00:50.567Z,25.10
2019-05-29T09:03:23.913Z,25.10
2019-05-29T09:06:08.396Z,25.00
2019-05-29T09:08:34.132Z,25.10
2019-05-29T09:11:08.800Z,25.20
2019-05-29T09:13:43.270Z,25.10
2019-05-29T09:16:17.101Z,24.90
2019-05-29T09:18:51.352Z,24.80
2019-05-29T09:21:26.708Z,24.80
2019-05-29T09:24:01.231Z,24.70
2019-05-29T09:26:35.868Z,24.70
2019-05-29T09:29:11.020Z,24.70
2019-05-29T09:31:45.128Z,24.70
2019-05-29T09:34:20.458Z,24.60
2019-05-29T09:36:56.065Z,24.70
2019-05-29T09:39:30.206Z,24.60
2019-05-29T09:42:04.109Z,24.50
2019-05-29T09:44:39.857Z,24.50
2019-05-29T09:47:15.573Z,24.50
2019-05-29T09:49:49.927Z,24.40
2019-05-29T09:52:23.785Z,24.40
2019-05-29T09:55:00.269Z,24.50
2019-05-29T09:57:34.287Z,24.50
2019-05-29T10:00:12.519Z,24.50
2019-05-29T10:02:46.367Z,24.60
2019-05-29T10:05:20.877Z,24.60
2019-05-29T10:07:56.299Z,24.60
2019-05-29T10:10:30.895Z,24.50
2019-05-29T10:13:05.032Z,24.50
2019-05-29T10:15:39.385Z,24.50
2019-05-29T10:18:30.650Z,24.50
2019-05-29T10:20:48.844Z,24.50
2019-05-29T10:23:23.061Z,24.40
2019-05-29T10:25:58.412Z,24.40
2019-05-29T10:28:49.430Z,24.40
2019-05-29T10:31:11.003Z,24.40
2019-05-29T10:33:46.163Z,24.40
2019-05-29T10:36:20.414Z,24.30
2019-05-29T10:38:54.765Z,24.30
2019-05-29T10:41:30.145Z,24.30
2019-05-29T10:44:04.724Z,24.30
2019-05-29T10:46:38.944Z,24.30
2019-05-29T10:49:13.435Z,24.30
2019-05-29T10:52:00.924Z,24.30
2019-05-29T10:54:23.785Z,24.30
2019-05-29T10:56:58.234Z,24.30
2019-05-29T10:59:32.529Z,24.20
2019-05-29T11:02:06.706Z,24.20
2019-05-29T11:04:40.825Z,24.20
2019-05-29T11:07:15.281Z,24.10
2019-05-29T11:09:50.105Z,24.20
2019-05-29T11:12:24.251Z,24.10
2019-05-29T11:14:58.943Z,24.10
2019-05-29T11:17:37.130Z,24.10
2019-05-29T11:20:12.553Z,24.10
2019-05-29T11:22:47.716Z,24.10
2019-05-29T11:25:26.675Z,24.10
2019-05-29T11:27:58.565Z,24.00
2019-05-29T11:30:33.095Z,24.00
2019-05-29T11:33:07.404Z,24.00
2019-05-29T11:35:57.327Z,24.00
2019-05-29T11:38:17.153Z,24.00
2019-05-29T11:41:05.105Z,24.00
2019-05-29T11:43:26.643Z,23.90
2019-05-29T11:46:01.784Z,23.90
2019-05-29T11:48:36.140Z,23.90
2019-05-29T11:51:10.639Z,23.90
2019-05-29T11:53:45.171Z,23.90
2019-05-29T11:56:19.856Z,23.90
2019-05-29T11:58:55.250Z,23.90
2019-05-29T12:01:29.209Z,23.90
2019-05-29T12:04:23.058Z,23.90
2019-05-29T12:06:40.872Z,23.90
2019-05-29T12:09:31.526Z,23.90
2019-05-29T12:11:51.644Z,23.90
2019-05-29T12:14:26.190Z,23.90
2019-05-29T12:17:01.126Z,23.80
2019-05-29T12:19:35.895Z,23.90
2019-05-29T12:22:10.721Z,23.90
2019-05-29T12:24:44.749Z,23.80
2019-05-29T12:27:21.722Z,23.80
2019-05-29T12:29:58.880Z,23.90
2019-05-29T12:32:33.439Z,23.80
2019-05-29T12:35:15.648Z,23.80
2019-05-29T12:37:50.223Z,23.80
2019-05-29T12:40:24.493Z,23.80
2019-05-29T12:43:00.095Z,23.80
2019-05-29T12:45:34.314Z,23.70
2019-05-29T12:48:14.646Z,23.70
2019-05-29T12:50:47.607Z,23.70
2019-05-29T12:53:30.138Z,23.70
2019-05-29T12:55:58.322Z,23.60
2019-05-29T12:58:32.288Z,23.60
2019-05-29T13:01:06.632Z,23.60
2019-05-29T13:03:45.032Z,23.60
2019-05-29T13:06:17.356Z,23.60
2019-05-29T13:08:54.564Z,23.60
2019-05-29T13:11:28.857Z,23.60
2019-05-29T13:14:05.099Z,23.50
2019-05-29T13:16:39.832Z,23.50
2019-05-29T13:19:17.744Z,23.40
2019-05-29T13:21:50.771Z,23.50
2019-05-29T13:24:26.744Z,23.40
2019-05-29T13:27:03.788Z,23.40
2019-05-29T13:29:38.361Z,23.40
2019-05-29T13:32:13.381Z,23.40
2019-05-29T13:34:48.463Z,23.30
2019-05-29T13:37:22.833Z,23.30
2019-05-29T13:39:57.923Z,23.20
2019-05-29T13:42:33.542Z,23.20
2019-05-29T13:45:17.979Z,23.30
2019-05-29T13:47:47.224Z,23.20
2019-05-29T13:50:23.657Z,23.20
2019-05-29T13:52:59.265Z,23.20
2019-05-29T13:58:25.752Z,23.20
2019-05-29T14:01:04.334Z,23.20
2019-05-29T14:03:39.259Z,23.20
2019-05-29T14:06:17.190Z,23.20
2019-05-29T14:08:51.804Z,23.20
2019-05-29T14:11:28.067Z,23.20
2019-05-29T14:14:04.051Z,23.20
2019-05-29T14:16:39.643Z,23.30
2019-05-29T14:19:17.379Z,23.30
2019-05-29T14:21:53.576Z,23.30
2019-05-29T14:24:29.920Z,23.20
2019-05-29T14:27:05.823Z,23.20
2019-05-29T14:29:38.409Z,23.20
2019-05-29T14:32:16.054Z,23.20
2019-05-29T14:34:48.505Z,23.10
2019-05-29T14:37:22.885Z,23.10
2019-05-29T14:39:57.117Z,23.10
2019-05-29T14:42:32.621Z,23.10
2019-05-29T14:45:14.555Z,23.00
2019-05-29T14:47:49.538Z,23.00
2019-05-29T14:50:24.777Z,23.00
2019-05-29T14:52:59.838Z,23.10
2019-05-29T14:55:36.231Z,23.10
2019-05-29T14:58:22.389Z,23.00
2019-05-29T15:00:59.038Z,23.00
2019-05-29T15:03:33.286Z,23.10
2019-05-29T15:06:11.765Z,23.10
2019-05-29T15:08:49.237Z,23.10
2019-05-29T15:11:28.307Z,23.10
2019-05-29T15:14:04.387Z,23.10
2019-05-29T15:16:40.261Z,23.00
2019-05-29T15:19:17.636Z,23.00
2019-05-29T15:21:52.785Z,23.00
2019-05-29T15:24:30.286Z,23.00
2019-05-29T15:27:08.317Z,23.00
2019-05-29T15:29:42.727Z,23.00
2019-05-29T15:32:20.020Z,23.10
2019-05-29T15:34:55.525Z,23.00
2019-05-29T15:37:32.485Z,23.00
2019-05-29T15:40:11.227Z,23.10
2019-05-29T15:42:53.632Z,23.20
2019-05-29T15:45:28.295Z,23.20
2019-05-29T15:48:02.913Z,23.10
2019-05-29T15:50:37.537Z,23.10
2019-05-29T15:53:13.137Z,23.10
2019-05-29T15:55:47.464Z,23.10
2019-05-29T15:58:26.209Z,23.00
2019-05-29T16:01:01.391Z,23.00
2019-05-29T16:03:37.485Z,23.00
2019-05-29T16:06:18.088Z,22.90
2019-05-29T16:08:51.914Z,23.00
2019-05-29T16:11:26.904Z,23.00
2019-05-29T16:14:09.063Z,22.90
2019-05-29T16:16:42.322Z,23.00
2019-05-29T16:19:22.656Z,22.90
2019-05-29T16:21:54.147Z,22.80
2019-05-29T16:24:28.448Z,22.80
2019-05-29T16:27:08.598Z,22.80
2019-05-29T16:29:40.490Z,22.90
2019-05-29T16:32:21.993Z,22.90
2019-05-29T16:34:54.241Z,22.90
2019-05-29T16:37:28.747Z,22.90
2019-05-29T16:40:08.438Z,22.90
2019-05-29T16:42:42.925Z,22.90
2019-05-29T16:45:20.311Z,22.90
2019-05-29T16:47:54.373Z,22.80
2019-05-29T16:50:28.900Z,22.60
2019-05-29T16:53:03.038Z,22.60
2019-05-29T16:55:53.509Z,22.60
2019-05-29T16:58:19.777Z,22.50
2019-05-29T17:00:54.192Z,22.30
2019-05-29T17:03:28.703Z,22.20
2019-05-29T17:06:03.203Z,22.40
2019-05-29T17:08:37.661Z,22.40
2019-05-29T17:11:12.065Z,22.30
2019-05-29T17:13:46.163Z,22.40
2019-05-29T17:16:20.688Z,22.20
2019-05-29T17:18:55.243Z,22.20
2019-05-29T17:21:31.697Z,22.10
2019-05-29T17:24:09.235Z,22.10
2019-05-29T17:26:45.604Z,22.10
2019-05-29T17:29:18.898Z,22.20
2019-05-29T17:31:53.462Z,22.20
2019-05-29T17:34:27.230Z,22.10
2019-05-29T17:37:01.877Z,22.10
2019-05-29T17:39:36.134Z,22.10
2019-05-29T17:42:49.549Z,22.20
2019-05-29T17:45:14.034Z,22.10
2019-05-29T17:47:49.154Z,22.20
2019-05-29T17:50:26.212Z,22.20
2019-05-29T17:52:59.701Z,22.20
2019-05-29T17:55:34.056Z,22.20
2019-05-29T17:58:08.477Z,22.30
2019-05-29T18:00:42.497Z,22.30
2019-05-29T18:03:17.986Z,22.20
2019-05-29T18:05:52.511Z,22.20
2019-05-29T18:08:26.951Z,22.20
2019-05-29T18:11:01.002Z,22.20
2019-05-29T18:13:34.876Z,22.30
2019-05-29T18:16:08.953Z,22.10
2019-05-29T18:18:43.372Z,22.10
2019-05-29T18:21:19.470Z,22.20
2019-05-29T18:23:53.918Z,22.20
2019-05-29T18:26:46.258Z,22.10
2019-05-29T18:29:03.676Z,22.10
2019-05-29T18:31:37.941Z,22.00
2019-05-29T18:34:12.105Z,22.00
2019-05-29T18:36:46.417Z,22.00
2019-05-29T18:39:22.103Z,22.10
2019-05-29T18:41:56.428Z,22.00
2019-05-29T18:44:30.644Z,22.00
2019-05-29T18:47:04.787Z,22.00
2019-05-29T18:49:39.057Z,21.90
2019-05-29T18:52:13.475Z,21.90
2019-05-29T18:54:47.533Z,21.90
2019-05-29T18:57:22.819Z,21.90
2019-05-29T18:59:56.851Z,21.90
2019-05-29T19:02:31.598Z,21.80
2019-05-29T19:05:08.765Z,21.90
2019-05-29T19:07:43.063Z,21.90
2019-05-29T19:10:17.205Z,21.80
2019-05-29T19:12:51.495Z,21.80
2019-05-29T19:15:25.935Z,21.80
2019-05-29T19:18:00.243Z,21.80
2019-05-29T19:20:34.641Z,21.90
2019-05-29T19:23:08.824Z,21.90
2019-05-29T19:25:43.174Z,21.80
2019-05-29T19:28:17.528Z,21.80
2019-05-29T19:30:51.690Z,21.80
2019-05-29T19:33:27.277Z,21.80
2019-05-29T19:36:01.554Z,21.80
2019-05-29T19:38:36.078Z,21.90
2019-05-29T19:41:10.389Z,21.80
2019-05-29T19:43:44.838Z,21.80
2019-05-29T19:46:19.353Z,21.80
2019-05-29T19:48:53.490Z,21.80
2019-05-29T19:51:27.406Z,21.80
2019-05-29T19:54:01.838Z,21.70
2019-05-29T19:56:35.981Z,21.70
2019-05-29T19:59:10.322Z,21.80
2019-05-29T20:01:44.251Z,21.80
2019-05-29T20:04:19.043Z,21.70
2019-05-29T20:06:53.086Z,21.70
2019-05-29T20:09:27.298Z,21.70
2019-05-29T20:12:01.496Z,21.80
2019-05-29T20:14:35.871Z,21.70
2019-05-29T20:17:10.247Z,21.70
2019-05-29T20:19:44.631Z,21.70
2019-05-29T20:22:18.826Z,21.80
2019-05-29T20:24:52.815Z,21.70
2019-05-29T20:27:27.232Z,21.70
2019-05-29T20:30:01.574Z,21.60
2019-05-29T20:32:37.120Z,21.60
2019-05-29T20:35:11.357Z,21.60
2019-05-29T20:37:46.457Z,21.70
2019-05-29T20:40:21.145Z,21.70
2019-05-29T20:42:55.500Z,21.70
2019-05-29T20:45:31.337Z,21.70
2019-05-29T20:48:05.871Z,21.70
2019-05-29T20:50:40.141Z,21.70
2019-05-29T20:53:14.821Z,21.60
2019-05-29T20:55:49.154Z,21.60
2019-05-29T20:58:24.921Z,21.60
2019-05-29T21:01:03.070Z,21.60
2019-05-29T21:03:34.829Z,21.60
2019-05-29T21:06:08.803Z,21.60
2019-05-29T21:08:43.474Z,21.70
2019-05-29T21:11:17.291Z,21.70
2019-05-29T21:13:50.046Z,21.60
2019-05-29T21:16:24.359Z,21.70
2019-05-29T21:18:58.193Z,21.70
2019-05-29T21:21:32.178Z,21.80
2019-05-29T21:24:06.490Z,21.80
2019-05-29T21:26:41.034Z,21.80
2019-05-29T21:29:15.548Z,21.70
2019-05-29T21:31:49.924Z,21.70
2019-05-29T21:34:24.571Z,21.70
2019-05-29T21:36:58.909Z,21.80
2019-05-29T21:39:32.794Z,21.80
2019-05-29T21:42:06.786Z,21.80
2019-05-29T21:44:40.760Z,21.80
2019-05-29T21:47:14.451Z,21.70
2019-05-29T21:49:48.461Z,21.70
2019-05-29T21:52:22.586Z,21.60
2019-05-29T21:54:56.519Z,21.60
2019-05-29T21:57:29.083Z,21.60
2019-05-29T22:00:03.507Z,21.70
2019-05-29T22:02:39.974Z,21.70
2019-05-29T22:05:14.779Z,21.70
2019-05-29T22:07:49.016Z,21.70
2019-05-29T22:10:26.099Z,21.60
2019-05-29T22:12:58.610Z,21.60
2019-05-29T22:15:32.857Z,21.60
2019-05-29T22:18:07.363Z,21.60
2019-05-29T22:20:41.443Z,21.60
2019-05-29T22:23:16.178Z,21.60
2019-05-29T22:25:51.114Z,21.60
2019-05-29T22:28:25.504Z,21.60
2019-05-29T22:30:59.867Z,21.70
2019-05-29T22:33:34.639Z,21.60
2019-05-29T22:36:08.957Z,21.70
2019-05-29T22:38:42.907Z,21.70
2019-05-29T22:41:15.100Z,21.70
2019-05-29T22:43:48.547Z,21.70
2019-05-29T22:46:21.055Z,21.70
2019-05-29T22:48:55.874Z,21.70
2019-05-29T22:51:29.997Z,21.70
2019-05-29T22:54:04.006Z,21.70
2019-05-29T22:56:38.374Z,21.80
2019-05-29T22:59:12.579Z,21.80
2019-05-29T23:01:46.775Z,21.80
2019-05-29T23:04:21.137Z,21.70
2019-05-29T23:06:56.333Z,21.80
2019-05-29T23:09:30.865Z,21.80
2019-05-29T23:12:05.607Z,21.80
2019-05-29T23:14:40.009Z,21.90
2019-05-29T23:17:14.535Z,21.90
2019-05-29T23:19:48.998Z,21.90
2019-05-29T23:22:24.647Z,21.90
2019-05-29T23:24:59.227Z,21.90
2019-05-29T23:27:33.481Z,21.90
2019-05-29T23:30:08.929Z,22.00
2019-05-29T23:32:43.362Z,21.90
2019-05-29T23:35:18.251Z,22.00
2019-05-29T23:37:53.007Z,22.00
2019-05-29T23:40:27.623Z,22.00
2019-05-29T23:43:03.613Z,22.00
2019-05-29T23:45:55.308Z,22.00
2019-05-29T23:48:29.828Z,22.10
2019-05-29T23:51:04.174Z,22.10
2019-05-29T23:53:42.194Z,22.10
2019-05-29T23:56:16.698Z,22.10
2019-05-29T23:58:50.769Z,22.20
